Accueil
METAR-TAF:

METAR-TAF

Aéroports :

Niederstetten, Allemagne

Base aérienne

latitude: 49-24N, longitude: 009-58E, altitude: 468 m

Observation

Le bulletin a été fait il y a 33 minutes, à 01:20 UTC
Vent 5 kt de ouest/sud-ouest
Température 16°C
Humidité 63%
Pression 1018 hPa
Visibilité 10 km ou plus

METAR: ETHN 240120Z 24005KT 9999 16/09 Q1018 BLU+

Heure: 03:53 (01:53 UTC)

Prévision

Le bulletin a été fait il y a 15 heures et 57 minutes, à 09:56 UTC
Prévision valable du 23 à 08 UTC au 23 à 17 UTC
Vent 10 kt de ouest/nord-ouest
Visibilité: 1000 m
Quelques nuages à une hauteur de 10000 ft
Nuages fragmentés à une hauteur de 28000 ft

TAF: ETHN 230956Z 2308/2317 30010KT 9999 NSW FEW100 BKN280 CANCEL 1000

Observations et prévisions météorologiques de plus de 4000 aéroports (messages METAR et TAF).

Les stations disponibles sont représentées par des disques jaunes et rouges sur la carte.

Passer la souris dessus pour voir le nom de la station.

Cliquer dessus pour voir les observations et prévisions météorologiques.

Pour changer de carte: cliquez sur les boutons verts avec une croix noire pour zoomer, sur le bouton vert avec un tiret pour effectuer un zoom arrière, ou sur les flèches vertes pour les cartes adjacentes.


METAR-TAF: